Time;durP1;ratioP1;P1;durP2;ratioP2;P2;SDS_P1;SDS_P2;PMS_P1;PMS_P2;Temp;Humidity;BMP_temperature;BMP_pressure;BME280_temperature;BME280_humidity;BME280_pressure;Samples;Min_cycle;Max_cycle;Signal;HPM_P1;HPM_P2
2023/08/07 00:01:58;;;;;;;6.78;6.20;;;;;;;;;;5057717;28;20131;-83
2023/08/07 00:04:24;;;;;;;6.43;5.93;;;;;;;;;;5040596;28;20137;-83
2023/08/07 00:06:50;;;;;;;6.25;5.85;;;;;;;;;;5074945;28;20051;-83
2023/08/07 00:09:16;;;;;;;6.35;5.22;;;;;;;;;;5074553;28;20074;-84
2023/08/07 00:11:43;;;;;;;6.00;5.45;;;;;;;;;;5073578;28;20044;-84
2023/08/07 00:14:09;;;;;;;5.40;5.00;;;;;;;;;;5073453;28;20098;-84
2023/08/07 00:16:35;;;;;;;5.68;5.15;;;;;;;;;;5073668;28;20110;-83
2023/08/07 00:19:01;;;;;;;5.35;4.95;;;;;;;;;;5074464;28;20484;-83
2023/08/07 00:21:27;;;;;;;5.57;4.80;;;;;;;;;;5073882;28;20045;-84
2023/08/07 00:23:54;;;;;;;4.88;4.47;;;;;;;;;;5073889;28;20048;-84
2023/08/07 00:26:21;;;;;;;4.78;4.47;;;;;;;;;;5073867;28;20503;-83
2023/08/07 00:28:47;;;;;;;4.43;4.05;;;;;;;;;;5074948;28;20045;-84
2023/08/07 00:31:13;;;;;;;4.68;4.38;;;;;;;;;;5073968;28;20106;-84
2023/08/07 00:33:39;;;;;;;4.70;4.38;;;;;;;;;;5073804;28;20192;-85
2023/08/07 00:36:05;;;;;;;4.28;3.92;;;;;;;;;;5073485;28;20076;-84
2023/08/07 00:38:31;;;;;;;4.40;4.10;;;;;;;;;;5056800;28;20044;-83
2023/08/07 00:40:59;;;;;;;4.70;4.28;;;;;;;;;;5074031;28;20055;-84
2023/08/07 00:43:25;;;;;;;4.95;4.55;;;;;;;;;;5073581;28;20052;-85
2023/08/07 00:45:52;;;;;;;4.47;4.03;;;;;;;;;;5057266;28;20105;-84
2023/08/07 00:48:18;;;;;;;4.28;3.42;;;;;;;;;;5073911;28;20546;-85
2023/08/07 00:50:45;;;;;;;4.38;3.97;;;;;;;;;;5056404;28;20044;-85
2023/08/07 00:53:11;;;;;;;4.82;3.53;;;;;;;;;;5077907;28;20053;-84
2023/08/07 00:55:37;;;;;;;5.25;3.05;;;;;;;;;;5061735;28;20037;-84
2023/08/07 00:58:03;;;;;;;3.97;3.47;;;;;;;;;;5077840;28;20499;-84
2023/08/07 01:00:32;;;;;;;4.85;3.72;;;;;;;;;;5061000;28;20365;-85
2023/08/07 01:03:00;;;;;;;5.95;3.67;;;;;;;;;;5078030;28;20063;-85
2023/08/07 01:05:26;;;;;;;3.35;3.03;;;;;;;;;;5077696;28;20143;-84
2023/08/07 01:07:54;;;;;;;3.88;3.60;;;;;;;;;;5077670;28;20488;-84
2023/08/07 01:10:26;;;;;;;3.13;2.78;;;;;;;;;;5077270;28;20538;-84
2023/08/07 01:13:00;;;;;;;3.15;2.85;;;;;;;;;;5061563;28;20048;-84
2023/08/07 01:15:30;;;;;;;4.78;3.22;;;;;;;;;;5077978;28;20135;-84
2023/08/07 01:17:57;;;;;;;3.15;2.55;;;;;;;;;;5077692;28;20048;-85
2023/08/07 01:20:23;;;;;;;5.22;3.00;;;;;;;;;;5078420;28;20041;-84
2023/08/07 01:22:49;;;;;;;3.53;3.10;;;;;;;;;;5078972;28;20044;-84
2023/08/07 01:25:15;;;;;;;4.15;3.33;;;;;;;;;;5077338;28;20044;-84
2023/08/07 01:27:56;;;;;;;3.15;2.60;;;;;;;;;;5077133;28;20044;-84
2023/08/07 01:30:26;;;;;;;3.30;2.72;;;;;;;;;;5078015;28;20052;-84
2023/08/07 01:33:13;;;;;;;2.72;2.53;;;;;;;;;;5077548;28;20084;-84
2023/08/07 01:35:48;;;;;;;3.38;2.22;;;;;;;;;;5077534;28;20071;-84
2023/08/07 01:38:14;;;;;;;;;;;;;;;;;;5077476;28;20401;-84
2023/08/07 01:40:40;;;;;;;4.18;2.50;;;;;;;;;;5076581;28;19927;-84
2023/08/07 01:43:06;;;;;;;3.88;2.50;;;;;;;;;;5060241;28;20611;-84
2023/08/07 01:45:32;;;;;;;2.30;2.03;;;;;;;;;;5076587;28;20408;-84
2023/08/07 01:47:59;;;;;;;6.05;2.67;;;;;;;;;;5076638;28;20063;-84
2023/08/07 01:50:26;;;;;;;5.03;2.20;;;;;;;;;;5076427;28;20389;-85
2023/08/07 01:52:52;;;;;;;4.15;1.88;;;;;;;;;;5076747;28;20044;-84
2023/08/07 01:55:18;;;;;;;5.50;1.75;;;;;;;;;;5076222;28;20051;-84
2023/08/07 01:57:44;;;;;;;2.60;1.73;;;;;;;;;;5076506;28;20044;-84
2023/08/07 02:00:11;;;;;;;4.05;1.60;;;;;;;;;;5076061;28;20040;-84
2023/08/07 02:02:37;;;;;;;7.18;2.30;;;;;;;;;;5075652;28;20041;-84
2023/08/07 02:05:04;;;;;;;6.45;2.30;;;;;;;;;;5077251;28;20092;-84
2023/08/07 02:07:30;;;;;;;5.38;1.58;;;;;;;;;;5042926;28;20433;-84
2023/08/07 02:09:56;;;;;;;6.35;1.83;;;;;;;;;;5042140;28;20481;-83
2023/08/07 02:12:22;;;;;;;6.32;1.95;;;;;;;;;;5075960;28;20045;-83
2023/08/07 02:14:48;;;;;;;4.03;1.60;;;;;;;;;;5076781;28;20044;-84
2023/08/07 02:17:14;;;;;;;4.80;1.58;;;;;;;;;;5075863;28;20511;-83
2023/08/07 02:19:41;;;;;;;5.15;1.42;;;;;;;;;;5077349;28;20047;-84
2023/08/07 02:22:07;;;;;;;5.00;1.17;;;;;;;;;;5076231;28;20045;-83
2023/08/07 02:24:33;;;;;;;4.47;1.25;;;;;;;;;;5076426;28;20040;-84
2023/08/07 02:26:59;;;;;;;6.88;1.30;;;;;;;;;;5075894;28;20040;-83
2023/08/07 02:29:25;;;;;;;4.22;1.15;;;;;;;;;;5058717;28;20045;-84
2023/08/07 02:31:51;;;;;;;5.32;1.10;;;;;;;;;;5075355;28;20052;-83
2023/08/07 02:34:17;;;;;;;4.47;1.10;;;;;;;;;;5076657;28;20049;-84
2023/08/07 02:36:43;;;;;;;8.68;1.50;;;;;;;;;;5076208;28;20051;-83
2023/08/07 02:39:09;;;;;;;5.80;1.50;;;;;;;;;;5076758;28;20045;-84
2023/08/07 02:41:35;;;;;;;6.20;0.98;;;;;;;;;;5074763;28;20044;-84
2023/08/07 02:44:01;;;;;;;8.43;1.30;;;;;;;;;;5059261;28;20048;-83
2023/08/07 02:46:28;;;;;;;8.38;1.63;;;;;;;;;;5058803;28;20047;-83
2023/08/07 02:48:54;;;;;;;9.82;1.45;;;;;;;;;;5058995;28;20049;-83
2023/08/07 02:51:20;;;;;;;6.47;1.60;;;;;;;;;;5075336;28;20072;-84
2023/08/07 02:53:46;;;;;;;9.40;1.08;;;;;;;;;;5058334;28;20496;-83
2023/08/07 02:56:12;;;;;;;7.57;1.33;;;;;;;;;;5074886;28;20049;-83
2023/08/07 02:58:38;;;;;;;6.82;1.30;;;;;;;;;;5076052;28;20142;-83
2023/08/07 03:01:06;;;;;;;6.60;0.98;;;;;;;;;;5074957;28;20127;-83
2023/08/07 03:03:32;;;;;;;4.90;0.95;;;;;;;;;;5074874;28;20118;-83
2023/08/07 03:05:58;;;;;;;6.22;1.23;;;;;;;;;;5041782;28;20044;-83
2023/08/07 03:08:24;;;;;;;6.93;1.40;;;;;;;;;;5076193;28;20420;-83
2023/08/07 03:10:55;;;;;;;7.70;1.00;;;;;;;;;;5074187;28;20051;-83
2023/08/07 03:13:22;;;;;;;6.78;1.70;;;;;;;;;;5057863;28;20071;-83
2023/08/07 03:15:49;;;;;;;7.38;1.27;;;;;;;;;;5073857;28;20037;-83
2023/08/07 03:18:16;;;;;;;5.75;0.98;;;;;;;;;;5076184;28;20052;-83
2023/08/07 03:20:43;;;;;;;6.28;0.90;;;;;;;;;;5075989;28;20040;-83
2023/08/07 03:23:09;;;;;;;7.63;1.65;;;;;;;;;;5075841;28;20052;-83
2023/08/07 03:25:35;;;;;;;10.05;0.90;;;;;;;;;;5074395;28;20067;-83
2023/08/07 03:28:01;;;;;;;6.20;1.08;;;;;;;;;;5074851;28;20048;-82
2023/08/07 03:30:27;;;;;;;7.28;1.00;;;;;;;;;;5074864;28;20047;-83
2023/08/07 03:32:53;;;;;;;6.95;0.65;;;;;;;;;;5074360;28;20046;-83
2023/08/07 03:35:19;;;;;;;6.63;0.52;;;;;;;;;;5074692;28;20048;-82
2023/08/07 03:37:46;;;;;;;8.63;0.88;;;;;;;;;;5058118;28;20056;-82
2023/08/07 03:40:12;;;;;;;5.75;0.80;;;;;;;;;;5074753;28;20043;-83
2023/08/07 03:42:38;;;;;;;6.28;0.70;;;;;;;;;;5075184;28;20494;-83
2023/08/07 03:45:04;;;;;;;7.15;0.85;;;;;;;;;;5074557;28;20044;-83
2023/08/07 03:47:30;;;;;;;8.25;0.70;;;;;;;;;;5074872;28;20051;-83
2023/08/07 03:49:56;;;;;;;9.77;1.08;;;;;;;;;;5075574;28;20512;-83
2023/08/07 03:52:22;;;;;;;7.57;1.15;;;;;;;;;;5074393;28;20052;-83
2023/08/07 03:54:48;;;;;;;8.02;0.88;;;;;;;;;;5075078;28;20045;-84
2023/08/07 03:57:14;;;;;;;9.07;1.02;;;;;;;;;;5073844;28;20059;-83
2023/08/07 03:59:40;;;;;;;5.80;0.95;;;;;;;;;;5074683;28;20374;-83
2023/08/07 04:02:08;;;;;;;11.60;0.85;;;;;;;;;;5073072;28;20052;-83
2023/08/07 04:04:34;;;;;;;7.75;0.90;;;;;;;;;;5073444;28;20147;-82
2023/08/07 04:07:00;;;;;;;11.43;1.20;;;;;;;;;;5072646;28;20551;-83
2023/08/07 04:09:26;;;;;;;8.10;1.15;;;;;;;;;;5072877;28;20554;-84
2023/08/07 04:11:52;;;;;;;9.18;1.08;;;;;;;;;;5071710;28;20091;-83
2023/08/07 04:14:18;;;;;;;8.95;1.40;;;;;;;;;;5072830;28;20571;-83
2023/08/07 04:16:44;;;;;;;10.32;0.93;;;;;;;;;;5057451;28;20051;-83
2023/08/07 04:19:10;;;;;;;9.05;1.20;;;;;;;;;;5073401;28;20476;-83
2023/08/07 04:21:36;;;;;;;9.27;1.58;;;;;;;;;;5074357;28;20071;-83
2023/08/07 04:24:10;;;;;;;6.82;0.98;;;;;;;;;;5073884;28;20093;-84
2023/08/07 04:26:37;;;;;;;7.35;1.02;;;;;;;;;;5056852;28;20138;-83
2023/08/07 04:29:03;;;;;;;8.07;1.10;;;;;;;;;;5073753;28;20084;-83
2023/08/07 04:31:33;;;;;;;6.38;1.02;;;;;;;;;;5058139;28;20044;-83
2023/08/07 04:33:59;;;;;;;7.00;1.00;;;;;;;;;;5057308;28;20507;-82
2023/08/07 04:36:26;;;;;;;6.72;1.00;;;;;;;;;;5073851;28;20083;-83
2023/08/07 04:38:52;;;;;;;5.35;1.13;;;;;;;;;;5075040;28;20049;-83
2023/08/07 04:41:18;;;;;;;7.35;0.90;;;;;;;;;;5056203;28;20178;-83
2023/08/07 04:43:45;;;;;;;7.55;1.20;;;;;;;;;;5073580;28;20082;-83
2023/08/07 04:46:12;;;;;;;4.35;0.80;;;;;;;;;;5075045;28;20135;-83
2023/08/07 04:48:38;;;;;;;6.40;0.85;;;;;;;;;;5073663;28;20080;-83
2023/08/07 04:51:04;;;;;;;6.55;1.20;;;;;;;;;;5056674;28;20496;-83
2023/08/07 04:53:30;;;;;;;7.03;1.10;;;;;;;;;;5072963;28;20068;-83
2023/08/07 04:55:56;;;;;;;4.85;0.95;;;;;;;;;;5056129;28;20052;-84
2023/08/07 04:58:22;;;;;;;5.22;1.00;;;;;;;;;;5073737;28;20048;-83
2023/08/07 05:00:48;;;;;;;7.07;1.33;;;;;;;;;;5056757;28;20048;-83
2023/08/07 05:03:15;;;;;;;5.10;1.63;;;;;;;;;;5072829;28;20057;-86
2023/08/07 05:05:41;;;;;;;3.22;1.15;;;;;;;;;;5073282;28;20057;-85
2023/08/07 05:08:07;;;;;;;6.93;1.35;;;;;;;;;;5073562;28;20061;-84
2023/08/07 05:10:33;;;;;;;7.97;1.67;;;;;;;;;;5072507;28;20063;-85
2023/08/07 05:12:59;;;;;;;6.40;1.23;;;;;;;;;;5072530;28;20044;-84
2023/08/07 05:15:28;;;;;;;7.68;1.92;;;;;;;;;;5074519;28;20087;-85
2023/08/07 05:17:54;;;;;;;6.00;1.63;;;;;;;;;;5040609;28;20056;-85
2023/08/07 05:20:20;;;;;;;9.75;1.80;;;;;;;;;;5056645;28;20080;-85
2023/08/07 05:22:46;;;;;;;7.13;1.80;;;;;;;;;;5073429;28;20044;-85
2023/08/07 05:25:15;;;;;;;6.20;1.50;;;;;;;;;;5074255;28;20055;-85
2023/08/07 05:27:42;;;;;;;6.68;1.48;;;;;;;;;;5073438;28;20094;-85
2023/08/07 05:30:08;;;;;;;9.00;1.83;;;;;;;;;;5056988;28;20052;-84
2023/08/07 05:32:37;;;;;;;5.95;1.52;;;;;;;;;;5073415;28;20055;-85
2023/08/07 05:35:04;;;;;;;6.90;2.53;;;;;;;;;;5073402;28;20114;-85
2023/08/07 05:37:31;;;;;;;9.45;2.33;;;;;;;;;;5073877;28;20056;-85
2023/08/07 05:39:57;;;;;;;6.88;1.77;;;;;;;;;;5059860;28;20076;-85
2023/08/07 05:42:23;;;;;;;7.97;1.55;;;;;;;;;;5077787;28;20048;-85
2023/08/07 05:44:49;;;;;;;8.60;1.83;;;;;;;;;;5060617;28;20052;-84
2023/08/07 05:47:15;;;;;;;10.65;2.17;;;;;;;;;;5076746;28;20048;-84
2023/08/07 05:49:42;;;;;;;7.15;1.83;;;;;;;;;;5077059;28;20047;-84
2023/08/07 05:52:08;;;;;;;5.90;1.48;;;;;;;;;;5077934;28;20071;-84
2023/08/07 05:54:34;;;;;;;6.25;1.20;;;;;;;;;;5077977;28;20048;-84
2023/08/07 05:57:00;;;;;;;4.90;1.48;;;;;;;;;;5076702;28;20044;-81
2023/08/07 05:59:26;;;;;;;5.30;1.17;;;;;;;;;;5077384;28;20052;-81
2023/08/07 06:01:53;;;;;;;4.43;1.08;;;;;;;;;;5077115;28;20084;-80
2023/08/07 06:04:20;;;;;;;4.47;1.10;;;;;;;;;;5075371;28;20087;-80
2023/08/07 06:06:46;;;;;;;7.90;1.10;;;;;;;;;;5076968;28;20052;-81
2023/08/07 06:09:14;;;;;;;8.45;1.40;;;;;;;;;;5076238;28;20077;-82
2023/08/07 06:11:40;;;;;;;6.95;1.70;;;;;;;;;;5077035;28;20369;-82
2023/08/07 06:14:06;;;;;;;8.18;1.30;;;;;;;;;;5076220;28;20101;-83
2023/08/07 06:16:33;;;;;;;9.23;1.35;;;;;;;;;;5077106;28;20515;-83
2023/08/07 06:18:59;;;;;;;9.65;1.80;;;;;;;;;;5076779;28;20127;-83
2023/08/07 06:21:25;;;;;;;7.47;1.50;;;;;;;;;;5075575;28;20040;-83
2023/08/07 06:23:51;;;;;;;7.30;1.67;;;;;;;;;;5059143;28;20052;-83
2023/08/07 06:26:17;;;;;;;8.00;1.63;;;;;;;;;;5075651;28;20048;-83
2023/08/07 06:28:43;;;;;;;7.72;1.83;;;;;;;;;;5059244;28;20053;-83
2023/08/07 06:31:11;;;;;;;4.90;1.15;;;;;;;;;;5076851;28;20041;-83
2023/08/07 06:33:37;;;;;;;6.18;1.42;;;;;;;;;;5075589;28;20149;-85
2023/08/07 06:36:03;;;;;;;7.03;2.08;;;;;;;;;;5076137;28;20040;-85
2023/08/07 06:38:30;;;;;;;7.82;2.75;;;;;;;;;;5075942;28;20048;-85
2023/08/07 06:40:56;;;;;;;6.03;1.60;;;;;;;;;;5075402;28;20044;-85
2023/08/07 06:43:22;;;;;;;10.70;2.28;;;;;;;;;;5075049;28;20554;-84
2023/08/07 06:45:52;;;;;;;5.15;1.73;;;;;;;;;;5075712;28;20145;-83
2023/08/07 06:48:18;;;;;;;10.68;2.15;;;;;;;;;;5074991;28;20049;-83
2023/08/07 06:50:44;;;;;;;10.18;2.20;;;;;;;;;;5076102;28;20055;-83
2023/08/07 06:53:10;;;;;;;12.25;2.38;;;;;;;;;;5075009;28;20127;-84
2023/08/07 06:55:37;;;;;;;7.10;2.40;;;;;;;;;;5076324;28;20399;-84
2023/08/07 06:58:03;;;;;;;8.93;2.88;;;;;;;;;;5075341;28;20473;-85
2023/08/07 07:00:29;;;;;;;13.93;2.97;;;;;;;;;;5058031;28;20041;-81
2023/08/07 07:02:55;;;;;;;4.18;1.63;;;;;;;;;;5075767;28;20481;-81
2023/08/07 07:05:21;;;;;;;6.50;0.77;;;;;;;;;;5076308;28;20103;-83
2023/08/07 07:07:47;;;;;;;5.85;1.10;;;;;;;;;;5074469;28;20182;-82
2023/08/07 07:10:13;;;;;;;6.22;1.00;;;;;;;;;;5075413;28;20041;-84
2023/08/07 07:12:40;;;;;;;5.85;1.17;;;;;;;;;;5058124;28;20401;-84
2023/08/07 07:15:06;;;;;;;5.95;1.60;;;;;;;;;;5075127;28;20051;-84
2023/08/07 07:17:32;;;;;;;8.32;1.60;;;;;;;;;;5074528;28;20059;-86
2023/08/07 07:19:58;;;;;;;10.00;1.23;;;;;;;;;;5074877;28;20488;-86
2023/08/07 07:22:24;;;;;;;8.52;1.30;;;;;;;;;;5075389;28;20051;-85
2023/08/07 07:24:50;;;;;;;7.88;1.75;;;;;;;;;;5075830;28;20106;-84
2023/08/07 07:27:16;;;;;;;8.93;1.63;;;;;;;;;;5075651;28;20063;-84
2023/08/07 07:29:42;;;;;;;7.63;1.35;;;;;;;;;;5074478;28;20054;-83
2023/08/07 07:32:08;;;;;;;8.20;1.42;;;;;;;;;;5058386;28;20098;-84
2023/08/07 07:34:34;;;;;;;5.63;1.67;;;;;;;;;;5075649;28;20048;-84
2023/08/07 07:37:00;;;;;;;8.88;1.80;;;;;;;;;;5075144;28;20048;-84
2023/08/07 07:39:26;;;;;;;7.07;1.70;;;;;;;;;;5056709;28;20053;-84
2023/08/07 07:41:52;;;;;;;8.32;1.40;;;;;;;;;;5072499;28;20174;-84
2023/08/07 07:44:18;;;;;;;8.60;1.92;;;;;;;;;;5075388;28;20040;-84
2023/08/07 07:46:44;;;;;;;8.90;1.90;;;;;;;;;;5059877;28;20037;-83
2023/08/07 07:49:11;;;;;;;9.50;1.48;;;;;;;;;;5072859;28;20051;-84
2023/08/07 07:51:37;;;;;;;11.05;1.73;;;;;;;;;;5056912;28;20063;-84
2023/08/07 07:54:03;;;;;;;8.13;1.48;;;;;;;;;;5073746;28;20048;-84
2023/08/07 07:56:29;;;;;;;6.88;1.20;;;;;;;;;;5073221;28;20545;-84
2023/08/07 07:58:56;;;;;;;9.23;1.00;;;;;;;;;;5071797;28;20048;-84
2023/08/07 08:01:23;;;;;;;8.85;1.35;;;;;;;;;;5074238;28;20396;-84
2023/08/07 08:03:49;;;;;;;7.20;1.50;;;;;;;;;;5074784;28;20060;-83
2023/08/07 08:06:15;;;;;;;8.02;1.30;;;;;;;;;;5074019;28;20481;-82
2023/08/07 08:08:42;;;;;;;3.67;0.98;;;;;;;;;;5074005;28;20040;-82
2023/08/07 08:11:08;;;;;;;5.18;0.80;;;;;;;;;;5073042;28;20047;-83
2023/08/07 08:13:38;;;;;;;6.85;1.05;;;;;;;;;;5073826;28;20108;-83
2023/08/07 08:16:04;;;;;;;4.43;0.82;;;;;;;;;;5074116;28;20052;-81
2023/08/07 08:18:31;;;;;;;3.50;0.68;;;;;;;;;;5057206;28;20052;-79
2023/08/07 08:20:57;;;;;;;4.80;0.80;;;;;;;;;;5074593;28;20412;-80
2023/08/07 08:23:23;;;;;;;4.40;0.80;;;;;;;;;;5056964;28;20465;-82
2023/08/07 08:25:50;;;;;;;4.68;0.80;;;;;;;;;;5073559;28;20037;-82
2023/08/07 08:28:17;;;;;;;3.65;0.50;;;;;;;;;;5073744;28;20078;-83
2023/08/07 08:30:43;;;;;;;3.63;0.52;;;;;;;;;;5074457;28;20052;-83
2023/08/07 08:33:12;;;;;;;5.47;0.60;;;;;;;;;;5057562;28;20109;-84
2023/08/07 08:35:38;;;;;;;2.53;0.43;;;;;;;;;;5073869;28;20121;-84
2023/08/07 08:38:04;;;;;;;2.78;0.43;;;;;;;;;;5075052;28;20087;-85
2023/08/07 08:40:34;;;;;;;2.65;0.52;;;;;;;;;;5073259;28;20052;-85
2023/08/07 08:43:05;;;;;;;2.85;0.70;;;;;;;;;;5074084;28;20047;-85
2023/08/07 08:45:37;;;;;;;6.38;0.95;;;;;;;;;;5073350;28;20546;-86
2023/08/07 08:48:04;;;;;;;5.43;0.70;;;;;;;;;;5073860;28;20105;-85
2023/08/07 08:50:32;;;;;;;4.68;0.52;;;;;;;;;;5074438;28;20048;-85
2023/08/07 08:52:59;;;;;;;5.53;1.00;;;;;;;;;;5074839;28;20408;-85
2023/08/07 08:55:26;;;;;;;6.10;0.95;;;;;;;;;;5073271;28;20044;-86
2023/08/07 08:57:56;;;;;;;4.43;0.93;;;;;;;;;;5073962;28;20141;-86
2023/08/07 09:00:25;;;;;;;7.38;1.27;;;;;;;;;;5055928;28;20115;-82
2023/08/07 09:02:52;;;;;;;4.30;0.80;;;;;;;;;;5073261;28;20503;-80
2023/08/07 09:05:22;;;;;;;4.90;0.70;;;;;;;;;;5073826;28;20056;-80
2023/08/07 09:07:49;;;;;;;4.97;0.70;;;;;;;;;;5075078;28;20396;-81
2023/08/07 09:10:16;;;;;;;5.18;0.93;;;;;;;;;;5073244;28;20043;-81
2023/08/07 09:12:44;;;;;;;3.88;0.70;;;;;;;;;;5074897;28;20127;-82
2023/08/07 09:15:12;;;;;;;3.08;1.10;;;;;;;;;;5077999;28;20162;-83
2023/08/07 09:17:41;;;;;;;3.85;0.85;;;;;;;;;;5077411;28;20052;-83
2023/08/07 09:20:11;;;;;;;4.90;0.98;;;;;;;;;;5077075;28;20135;-85
2023/08/07 09:22:37;;;;;;;7.32;1.08;;;;;;;;;;5078932;28;20443;-85
2023/08/07 09:25:04;;;;;;;7.05;1.30;;;;;;;;;;5079182;28;20044;-85
2023/08/07 09:27:33;;;;;;;8.95;2.40;;;;;;;;;;5060452;28;20041;-85
2023/08/07 09:29:59;;;;;;;6.72;2.15;;;;;;;;;;5079108;28;20068;-84
2023/08/07 09:32:28;;;;;;;8.95;2.28;;;;;;;;;;5078832;28;20116;-85
2023/08/07 09:34:55;;;;;;;6.28;1.67;;;;;;;;;;5077731;28;20481;-86
2023/08/07 09:37:21;;;;;;;6.93;1.70;;;;;;;;;;5060747;28;20562;-85
2023/08/07 09:39:47;;;;;;;7.07;1.83;;;;;;;;;;5076967;28;20059;-86
2023/08/07 09:42:17;;;;;;;7.07;1.65;;;;;;;;;;5076014;28;20051;-84
2023/08/07 09:44:48;;;;;;;6.43;1.50;;;;;;;;;;5076370;28;20049;-85
2023/08/07 09:47:18;;;;;;;5.95;1.63;;;;;;;;;;5044031;28;20047;-85
2023/08/07 09:49:45;;;;;;;5.53;1.67;;;;;;;;;;5078299;28;20052;-85
2023/08/07 09:52:15;;;;;;;9.10;1.33;;;;;;;;;;5080555;28;20044;-85
2023/08/07 09:54:41;;;;;;;4.93;1.05;;;;;;;;;;5077420;28;20103;-86
2023/08/07 09:57:07;;;;;;;8.05;1.38;;;;;;;;;;5061070;28;20079;-87
2023/08/07 09:59:34;;;;;;;6.95;1.00;;;;;;;;;;5060315;28;20378;-86
2023/08/07 10:02:04;;;;;;;7.55;1.65;;;;;;;;;;5075930;28;20090;-85
2023/08/07 10:04:30;;;;;;;4.85;0.80;;;;;;;;;;5058483;28;20057;-85
2023/08/07 10:06:57;;;;;;;10.48;1.63;;;;;;;;;;5076109;28;20083;-86
2023/08/07 10:09:23;;;;;;;4.88;1.00;;;;;;;;;;5076308;28;20477;-85
2023/08/07 10:11:49;;;;;;;6.45;1.20;;;;;;;;;;5075793;28;20567;-85
2023/08/07 10:14:16;;;;;;;4.80;0.70;;;;;;;;;;5076215;28;20392;-85
2023/08/07 10:16:43;;;;;;;4.18;0.63;;;;;;;;;;5075825;28;20037;-86
2023/08/07 10:19:09;;;;;;;10.75;0.80;;;;;;;;;;5077408;28;20044;-86
2023/08/07 10:21:40;;;;;;;5.07;0.70;;;;;;;;;;5058602;28;20047;-87
2023/08/07 10:24:07;;;;;;;5.78;0.70;;;;;;;;;;5076413;28;20044;-86
2023/08/07 10:26:34;;;;;;;3.65;0.80;;;;;;;;;;5076296;28;20049;-86
2023/08/07 10:29:02;;;;;;;6.15;1.38;;;;;;;;;;5075695;28;20055;-86
2023/08/07 10:31:29;;;;;;;4.78;0.75;;;;;;;;;;5075166;28;20049;-87
2023/08/07 10:33:55;;;;;;;5.88;1.02;;;;;;;;;;5076966;28;20392;-86
2023/08/07 10:36:21;;;;;;;5.47;0.93;;;;;;;;;;5073056;28;20040;-86
2023/08/07 10:38:51;;;;;;;4.55;0.60;;;;;;;;;;5059095;28;20044;-86
2023/08/07 10:41:18;;;;;;;6.32;0.90;;;;;;;;;;5076530;28;20480;-86
2023/08/07 10:43:45;;;;;;;4.82;1.05;;;;;;;;;;5076131;28;20049;-86
2023/08/07 10:46:11;;;;;;;2.35;0.50;;;;;;;;;;5058881;28;20048;-87
2023/08/07 10:48:46;;;;;;;4.88;0.57;;;;;;;;;;5076167;28;20442;-86
2023/08/07 10:51:13;;;;;;;4.72;0.60;;;;;;;;;;5075846;28;20095;-87
2023/08/07 10:53:48;;;;;;;2.13;0.85;;;;;;;;;;5075985;28;20084;-86
2023/08/07 10:56:14;;;;;;;;;;;;;;;;;;5075441;28;20055;-87
2023/08/07 10:58:41;;;;;;;4.07;0.50;;;;;;;;;;5075194;28;19920;-88
2023/08/07 11:01:19;;;;;;;5.22;0.60;;;;;;;;;;5076354;28;20045;-87
2023/08/07 11:03:46;;;;;;;5.85;0.82;;;;;;;;;;5059099;28;20064;-87
2023/08/07 11:06:12;;;;;;;3.13;0.63;;;;;;;;;;5075576;28;20052;-88
2023/08/07 11:08:38;;;;;;;4.95;0.68;;;;;;;;;;5075647;28;20040;-86
2023/08/07 11:11:05;;;;;;;2.67;0.70;;;;;;;;;;5076205;28;20049;-86
2023/08/07 11:13:32;;;;;;;4.80;0.68;;;;;;;;;;5075711;28;20044;-87
2023/08/07 11:15:59;;;;;;;5.18;0.50;;;;;;;;;;5076213;28;20532;-86
2023/08/07 11:18:25;;;;;;;4.20;0.73;;;;;;;;;;5075745;28;20075;-87
2023/08/07 11:20:53;;;;;;;3.72;0.60;;;;;;;;;;5075289;28;20040;-86
2023/08/07 11:23:27;;;;;;;6.22;1.17;;;;;;;;;;5075393;28;20053;-87
2023/08/07 11:25:53;;;;;;;8.00;0.63;;;;;;;;;;5075383;28;20094;-86
2023/08/07 11:28:19;;;;;;;3.08;0.50;;;;;;;;;;5075088;28;20044;-86
2023/08/07 11:30:47;;;;;;;2.10;0.50;;;;;;;;;;5076224;28;20045;-86
2023/08/07 11:33:14;;;;;;;5.00;0.80;;;;;;;;;;5109427;28;20106;-86
2023/08/07 11:35:43;;;;;;;3.17;0.70;;;;;;;;;;5075443;28;20545;-86
2023/08/07 11:38:09;;;;;;;8.65;1.83;;;;;;;;;;5075862;28;20044;-87
2023/08/07 11:40:36;;;;;;;3.40;0.60;;;;;;;;;;5041416;28;20047;-87
2023/08/07 11:43:02;;;;;;;4.20;0.70;;;;;;;;;;5074557;28;20389;-86
2023/08/07 11:45:28;;;;;;;5.13;0.70;;;;;;;;;;5075647;28;20102;-87
2023/08/07 11:47:59;;;;;;;3.08;0.77;;;;;;;;;;5075066;28;20135;-87
2023/08/07 11:50:25;;;;;;;3.30;0.60;;;;;;;;;;5075112;28;20387;-86
2023/08/07 11:52:51;;;;;;;4.00;0.43;;;;;;;;;;5057620;28;20052;-86
2023/08/07 11:55:18;;;;;;;4.90;0.50;;;;;;;;;;5058042;28;20056;-86
2023/08/07 11:57:46;;;;;;;2.92;0.50;;;;;;;;;;5074913;28;20052;-86
2023/08/07 12:00:13;;;;;;;2.47;0.40;;;;;;;;;;5074813;28;20488;-86
2023/08/07 12:02:45;;;;;;;2.40;0.35;;;;;;;;;;5074782;28;20044;-86
2023/08/07 12:05:12;;;;;;;3.58;0.40;;;;;;;;;;5074718;28;20492;-86
2023/08/07 12:07:39;;;;;;;1.58;0.30;;;;;;;;;;5074188;28;20091;-86
2023/08/07 12:10:09;;;;;;;3.28;0.57;;;;;;;;;;5057931;28;20093;-86
2023/08/07 12:12:38;;;;;;;3.28;0.50;;;;;;;;;;5073637;28;20051;-86
2023/08/07 12:15:08;;;;;;;5.43;0.68;;;;;;;;;;5074592;28;20049;-86
2023/08/07 12:17:34;;;;;;;3.85;0.50;;;;;;;;;;5074092;28;20091;-85
2023/08/07 12:20:00;;;;;;;1.63;0.60;;;;;;;;;;5057430;28;20454;-86
2023/08/07 12:22:30;;;;;;;2.67;0.45;;;;;;;;;;5074876;28;20059;-86
2023/08/07 12:24:56;;;;;;;4.13;0.50;;;;;;;;;;5075033;28;20131;-86
2023/08/07 12:27:23;;;;;;;6.50;0.60;;;;;;;;;;5074264;28;20060;-86
2023/08/07 12:29:49;;;;;;;4.35;0.40;;;;;;;;;;5073870;28;20131;-86
2023/08/07 12:32:15;;;;;;;2.72;0.45;;;;;;;;;;5073772;28;20052;-85
2023/08/07 12:34:41;;;;;;;1.90;0.30;;;;;;;;;;5072785;28;20040;-86
2023/08/07 12:37:07;;;;;;;4.55;0.40;;;;;;;;;;5071193;28;20145;-85
2023/08/07 12:39:33;;;;;;;4.72;0.60;;;;;;;;;;5071062;28;20048;-86
2023/08/07 12:41:59;;;;;;;3.08;0.50;;;;;;;;;;5074173;28;20047;-85
2023/08/07 12:44:25;;;;;;;2.45;0.50;;;;;;;;;;5073608;28;20051;-85
2023/08/07 12:46:51;;;;;;;2.80;0.63;;;;;;;;;;5073731;28;20040;-85
2023/08/07 12:49:19;;;;;;;3.33;0.50;;;;;;;;;;5074667;28;20049;-85
2023/08/07 12:51:45;;;;;;;1.98;0.63;;;;;;;;;;5075283;28;20376;-85
2023/08/07 12:54:11;;;;;;;2.55;0.50;;;;;;;;;;5074562;28;20051;-85
2023/08/07 12:56:37;;;;;;;3.33;0.57;;;;;;;;;;5107268;28;20118;-85
2023/08/07 12:59:03;;;;;;;2.65;0.50;;;;;;;;;;5073923;28;20075;-85
2023/08/07 13:01:29;;;;;;;5.32;0.60;;;;;;;;;;5056939;28;20525;-85
2023/08/07 13:03:55;;;;;;;3.50;0.77;;;;;;;;;;5074577;28;20048;-85
2023/08/07 13:06:21;;;;;;;5.38;0.60;;;;;;;;;;5074211;28;20057;-85
2023/08/07 13:08:47;;;;;;;5.38;0.50;;;;;;;;;;5073942;28;20036;-85
2023/08/07 13:11:14;;;;;;;5.72;0.70;;;;;;;;;;5073750;28;20046;-86
2023/08/07 13:13:40;;;;;;;2.97;0.70;;;;;;;;;;5072995;28;20127;-85
2023/08/07 13:16:06;;;;;;;3.10;0.68;;;;;;;;;;5040253;28;20052;-86
2023/08/07 13:18:32;;;;;;;4.28;0.70;;;;;;;;;;5074106;28;20098;-86
2023/08/07 13:20:59;;;;;;;4.32;0.75;;;;;;;;;;5074519;28;20044;-85
2023/08/07 13:23:25;;;;;;;3.85;0.80;;;;;;;;;;5057025;28;20495;-86
2023/08/07 13:25:51;;;;;;;3.08;0.60;;;;;;;;;;5073255;28;20056;-85
2023/08/07 13:28:18;;;;;;;3.42;1.00;;;;;;;;;;5073129;28;20044;-85
2023/08/07 13:30:44;;;;;;;1.73;0.50;;;;;;;;;;5056919;28;20438;-85
2023/08/07 13:33:10;;;;;;;3.70;0.57;;;;;;;;;;5073689;28;20044;-85
2023/08/07 13:35:37;;;;;;;3.25;0.60;;;;;;;;;;5073131;28;20437;-85
2023/08/07 13:38:05;;;;;;;2.70;0.63;;;;;;;;;;5073797;28;20056;-84
2023/08/07 13:40:31;;;;;;;1.60;0.68;;;;;;;;;;5074067;28;20044;-86
2023/08/07 13:42:59;;;;;;;4.07;0.65;;;;;;;;;;5072936;28;20045;-85
2023/08/07 13:45:25;;;;;;;2.55;0.70;;;;;;;;;;5073392;28;20052;-85
2023/08/07 13:47:51;;;;;;;2.33;0.70;;;;;;;;;;5056861;28;20040;-85
2023/08/07 13:50:17;;;;;;;3.17;0.70;;;;;;;;;;5073494;28;20098;-85
2023/08/07 13:52:43;;;;;;;6.20;0.80;;;;;;;;;;5072962;28;20045;-85
2023/08/07 13:55:15;;;;;;;2.22;0.68;;;;;;;;;;5073470;28;20045;-85
2023/08/07 13:57:41;;;;;;;1.80;0.60;;;;;;;;;;5074476;28;20052;-86
2023/08/07 14:00:08;;;;;;;1.27;0.40;;;;;;;;;;5076315;28;20088;-85
2023/08/07 14:02:34;;;;;;;3.13;0.90;;;;;;;;;;5076908;28;20044;-85
2023/08/07 14:05:01;;;;;;;2.47;0.82;;;;;;;;;;5059791;28;20396;-85
2023/08/07 14:07:27;;;;;;;4.07;0.82;;;;;;;;;;5078737;28;20048;-85
2023/08/07 14:09:53;;;;;;;3.95;1.00;;;;;;;;;;5076955;28;20048;-85
2023/08/07 14:12:19;;;;;;;2.15;1.15;;;;;;;;;;5076230;28;20473;-85
2023/08/07 14:14:45;;;;;;;5.00;1.38;;;;;;;;;;5076593;28;20048;-84
2023/08/07 14:17:11;;;;;;;3.08;1.42;;;;;;;;;;5077532;28;20087;-84
2023/08/07 14:19:37;;;;;;;4.53;1.67;;;;;;;;;;5076448;28;20083;-84
2023/08/07 14:22:03;;;;;;;5.07;1.45;;;;;;;;;;5076238;28;20487;-84
2023/08/07 14:24:29;;;;;;;4.18;1.05;;;;;;;;;;5060290;28;20068;-85
2023/08/07 14:26:55;;;;;;;3.78;1.38;;;;;;;;;;5076525;28;20076;-85
2023/08/07 14:29:22;;;;;;;3.70;1.30;;;;;;;;;;5077297;28;20051;-85
2023/08/07 14:31:48;;;;;;;3.90;1.33;;;;;;;;;;5077247;28;20380;-86
2023/08/07 14:34:14;;;;;;;2.95;1.10;;;;;;;;;;5057481;28;20182;-86
2023/08/07 14:36:40;;;;;;;3.53;1.13;;;;;;;;;;5074877;28;20098;-87
2023/08/07 14:39:06;;;;;;;7.70;1.63;;;;;;;;;;5076345;28;20488;-86
2023/08/07 14:41:32;;;;;;;5.28;1.05;;;;;;;;;;5059055;28;20045;-86